Time;durP1;ratioP1;P1;durP2;ratioP2;P2;SDS_P1;SDS_P2;PMS_P1;PMS_P2;Temp;Humidity;BMP_temperature;BMP_pressure;BME280_temperature;BME280_humidity;BME280_pressure;Samples;Min_cycle;Max_cycle;Signal;HPM_P1;HPM_P2
2021/04/16 00:00:42;;;;;;;;;;;5.00;57.60;;;;;;4932678;29;20342;-88
2021/04/16 00:03:09;;;;;;;;;;;5.00;57.80;;;;;;4937006;29;19914;-88
2021/04/16 00:05:35;;;;;;;;;;;4.90;58.00;;;;;;4944983;28;19911;-87
2021/04/16 00:08:00;;;;;;;;;;;4.90;58.00;;;;;;4943560;29;19921;-88
2021/04/16 00:10:34;;;;;;;;;;;4.90;58.20;;;;;;4938567;29;19995;-87
2021/04/16 00:13:00;;;;;;;;;;;4.90;58.30;;;;;;4937718;29;20010;-88
2021/04/16 00:15:26;;;;;;;;;;;4.80;58.40;;;;;;4935688;28;19953;-87
2021/04/16 00:17:51;;;;;;;;;;;4.80;58.60;;;;;;4945299;29;19945;-87
2021/04/16 00:20:18;;;;;;;;;;;4.90;58.70;;;;;;4935983;29;20396;-87
2021/04/16 00:22:43;;;;;;;;;;;4.80;58.60;;;;;;4950190;29;19923;-88
2021/04/16 00:25:12;;;;;;;;;;;4.80;58.70;;;;;;4938333;29;19911;-86
2021/04/16 00:27:37;;;;;;;;;;;4.80;58.80;;;;;;4934346;29;19913;-87
2021/04/16 00:30:04;;;;;;;;;;;4.80;59.00;;;;;;4936063;29;20009;-86
2021/04/16 00:32:29;;;;;;;;;;;4.70;59.00;;;;;;4929501;29;20297;-87
2021/04/16 00:34:55;;;;;;;;;;;4.70;59.20;;;;;;4939421;29;19911;-87
2021/04/16 00:37:20;;;;;;;;;;;4.60;59.30;;;;;;4928551;29;19922;-88
2021/04/16 00:39:46;;;;;;;;;;;4.60;59.40;;;;;;4931125;29;19911;-87
2021/04/16 00:42:11;;;;;;;;;;;4.60;59.30;;;;;;4931199;29;19911;-87
2021/04/16 00:44:37;;;;;;;;;;;4.60;59.40;;;;;;4941756;29;19981;-87
2021/04/16 00:47:05;;;;;;;;;;;4.60;59.50;;;;;;4938568;29;19911;-88
2021/04/16 00:49:57;;;;;;;;;;;4.60;60.20;;;;;;4942321;29;19920;-88
2021/04/16 00:52:27;;;;;;;;;;;4.60;59.60;;;;;;4930169;29;19933;-88
2021/04/16 00:54:53;;;;;;;;;;;4.60;59.80;;;;;;4931715;28;19920;-87
2021/04/16 00:57:19;;;;;;;;;;;4.50;59.90;;;;;;4935634;29;19910;-87
2021/04/16 00:59:50;;;;;;;;;;;4.50;60.10;;;;;;4943380;28;19914;-87
2021/04/16 01:02:16;;;;;;;;;;;4.50;60.10;;;;;;4936362;29;19918;-87
2021/04/16 01:04:41;;;;;;;;;;;4.50;60.40;;;;;;4944497;29;19911;-89
2021/04/16 01:07:08;;;;;;;;;;;4.40;60.60;;;;;;4949159;29;19913;-90
2021/04/16 01:09:33;;;;;;;;;;;4.40;60.90;;;;;;4935373;29;19914;-88
2021/04/16 01:12:01;;;;;;;;;;;4.40;60.90;;;;;;4936159;29;19938;-88
2021/04/16 01:14:27;;;;;;;;;;;4.40;61.00;;;;;;4943842;29;19910;-87
2021/04/16 01:16:52;;;;;;;;;;;4.40;61.10;;;;;;4945253;28;19914;-88
2021/04/16 01:19:28;;;;;;;;;;;4.30;61.30;;;;;;4937371;29;19916;-88
2021/04/16 01:21:56;;;;;;;;;;;4.30;61.30;;;;;;4939739;28;19911;-89
2021/04/16 01:24:24;;;;;;;;;;;4.30;61.40;;;;;;4941797;29;19918;-88
2021/04/16 01:26:50;;;;;;;;;;;4.30;61.60;;;;;;4944332;28;20343;-89
2021/04/16 01:29:16;;;;;;;;;;;4.30;61.70;;;;;;4946580;28;19922;-88
2021/04/16 01:31:47;;;;;;;;;;;4.20;61.80;;;;;;4936189;29;19911;-89
2021/04/16 01:34:22;;;;;;;;;;;4.20;61.90;;;;;;4936156;29;19914;-90
2021/04/16 01:36:49;;;;;;;;;;;4.20;62.10;;;;;;4943820;28;19996;-89
2021/04/16 01:39:15;;;;;;;;;;;4.20;62.30;;;;;;4948395;28;19906;-89
2021/04/16 01:41:40;;;;;;;;;;;4.20;62.40;;;;;;4935531;29;19963;-88
2021/04/16 01:44:12;;;;;;;;;;;4.30;62.60;;;;;;4945547;29;20298;-89
2021/04/16 01:46:46;;;;;;;;;;;4.20;62.70;;;;;;4941416;28;19942;-89
2021/04/16 01:49:12;;;;;;;;;;;4.20;62.70;;;;;;4941456;29;19950;-89
2021/04/16 01:51:37;;;;;;;;;;;4.20;62.80;;;;;;4944803;28;19911;-88
2021/04/16 01:54:18;;;;;;;;;;;4.20;63.10;;;;;;4919726;29;19907;-89
2021/04/16 01:56:44;;;;;;;;;;;4.20;63.30;;;;;;4947894;29;19949;-89
2021/04/16 01:59:14;;;;;;;;;;;4.10;63.40;;;;;;4936764;29;19906;-89
2021/04/16 02:01:42;;;;;;;;;;;4.20;63.70;;;;;;4944600;28;19911;-88
2021/04/16 02:04:08;;;;;;;;;;;4.10;64.10;;;;;;4948164;29;19914;-87
2021/04/16 02:06:34;;;;;;;;;;;4.10;64.30;;;;;;4936473;29;20379;-89
2021/04/16 02:09:00;;;;;;;;;;;4.00;64.10;;;;;;4935866;28;20292;-87
2021/04/16 02:11:25;;;;;;;;;;;4.00;64.20;;;;;;4949109;29;20327;-88
2021/04/16 02:13:51;;;;;;;;;;;4.00;64.10;;;;;;4946662;28;19997;-88
2021/04/16 02:16:16;;;;;;;;;;;4.00;64.40;;;;;;4940004;28;19915;-89
2021/04/16 02:18:42;;;;;;;;;;;4.00;64.60;;;;;;4947959;29;19919;-88
2021/04/16 02:21:07;;;;;;;;;;;3.90;64.70;;;;;;4929536;29;19933;-87
2021/04/16 02:23:33;;;;;;;;;;;3.90;64.80;;;;;;4934670;29;19973;-88
2021/04/16 02:25:58;;;;;;;;;;;3.90;64.80;;;;;;4936787;29;20262;-87
2021/04/16 02:28:24;;;;;;;;;;;3.90;64.80;;;;;;4933985;29;19914;-87
2021/04/16 02:30:49;;;;;;;;;;;3.90;65.00;;;;;;4938405;29;19985;-88
2021/04/16 02:33:15;;;;;;;;;;;3.90;65.00;;;;;;4923138;29;19911;-88
2021/04/16 02:35:40;;;;;;;;;;;3.90;65.10;;;;;;4933435;28;19918;-87
2021/04/16 02:38:06;;;;;;;;;;;3.90;65.20;;;;;;4932708;29;19911;-87
2021/04/16 02:40:31;;;;;;;;;;;3.90;65.40;;;;;;4940008;29;19911;-87
2021/04/16 02:42:57;;;;;;;;;;;3.80;65.50;;;;;;4936536;29;19990;-88
2021/04/16 02:45:23;;;;;;;;;;;3.80;65.60;;;;;;4937082;29;19927;-88
2021/04/16 02:47:49;;;;;;;;;;;3.80;65.90;;;;;;4937504;28;19915;-87
2021/04/16 02:50:17;;;;;;;;;;;3.80;66.10;;;;;;4942279;29;19957;-86
2021/04/16 02:52:43;;;;;;;;;;;3.80;66.10;;;;;;4941326;28;19929;-88
2021/04/16 02:55:08;;;;;;;;;;;3.80;66.30;;;;;;4934919;29;19907;-87
2021/04/16 02:57:34;;;;;;;;;;;3.80;66.50;;;;;;4938669;29;19910;-88
2021/04/16 02:59:59;;;;;;;;;;;3.70;66.70;;;;;;4940875;29;20001;-88
2021/04/16 03:02:25;;;;;;;;;;;3.70;66.80;;;;;;4936738;29;19915;-87
2021/04/16 03:04:50;;;;;;;;;;;3.70;66.80;;;;;;4935851;29;19918;-87
2021/04/16 03:07:16;;;;;;;;;;;3.70;66.70;;;;;;4947540;28;19911;-87
2021/04/16 03:09:41;;;;;;;;;;;3.70;66.80;;;;;;4945687;29;19921;-87
2021/04/16 03:12:07;;;;;;;;;;;3.70;67.60;;;;;;4948830;28;20361;-86
2021/04/16 03:14:32;;;;;;;;;;;3.70;67.00;;;;;;4938095;28;20032;-86
2021/04/16 03:16:58;;;;;;;;;;;3.70;67.10;;;;;;4944035;28;19911;-86
2021/04/16 03:19:23;;;;;;;;;;;3.70;67.20;;;;;;4939873;28;19911;-87
2021/04/16 03:21:49;;;;;;;;;;;3.70;67.40;;;;;;4945413;29;20381;-87
2021/04/16 03:24:14;;;;;;;;;;;3.60;67.40;;;;;;4946549;29;20005;-88
2021/04/16 03:26:40;;;;;;;;;;;3.60;67.60;;;;;;4946668;28;19914;-88
2021/04/16 03:29:05;;;;;;;;;;;3.60;67.60;;;;;;4941048;29;19919;-88
2021/04/16 03:31:32;;;;;;;;;;;3.60;67.70;;;;;;4934926;29;20390;-87
2021/04/16 03:33:58;;;;;;;;;;;3.60;67.70;;;;;;4935745;29;19918;-86
2021/04/16 03:36:24;;;;;;;;;;;3.60;67.90;;;;;;4939271;29;19910;-86
2021/04/16 03:38:50;;;;;;;;;;;3.60;67.90;;;;;;4937969;29;19921;-86
2021/04/16 03:41:16;;;;;;;;;;;3.60;67.90;;;;;;4938085;29;20301;-88
2021/04/16 03:43:42;;;;;;;;;;;3.60;68.00;;;;;;4947127;28;20009;-88
2021/04/16 03:46:08;;;;;;;;;;;3.60;68.10;;;;;;4942391;29;19918;-86
2021/04/16 03:48:33;;;;;;;;;;;3.60;68.20;;;;;;4938730;29;19911;-88
2021/04/16 03:50:59;;;;;;;;;;;3.60;68.30;;;;;;4938354;29;20109;-86
2021/04/16 03:53:24;;;;;;;;;;;3.60;68.40;;;;;;4935123;29;19922;-86
2021/04/16 03:55:50;;;;;;;;;;;3.60;68.50;;;;;;4940092;29;19914;-86
2021/04/16 03:58:15;;;;;;;;;;;3.50;68.60;;;;;;4935929;29;19925;-86
2021/04/16 04:00:41;;;;;;;;;;;3.50;68.70;;;;;;4932074;29;19982;-85
2021/04/16 04:03:08;;;;;;;;;;;3.60;68.80;;;;;;4927725;29;20007;-86
2021/04/16 04:05:34;;;;;;;;;;;3.60;68.80;;;;;;4942575;29;19907;-87
2021/04/16 04:07:59;;;;;;;;;;;3.60;69.00;;;;;;4928971;28;20355;-85
2021/04/16 04:10:25;;;;;;;;;;;3.60;69.20;;;;;;4928114;28;19921;-86
2021/04/16 04:12:50;;;;;;;;;;;3.60;69.00;;;;;;4941545;28;20496;-87
2021/04/16 04:15:17;;;;;;;;;;;3.60;69.00;;;;;;4940717;28;19910;-87
2021/04/16 04:17:42;;;;;;;;;;;3.60;69.30;;;;;;4949201;28;19911;-86
2021/04/16 04:20:10;;;;;;;;;;;3.60;69.40;;;;;;4936457;28;19919;-85
2021/04/16 04:22:36;;;;;;;;;;;3.50;69.50;;;;;;4949580;28;19921;-86
2021/04/16 04:25:02;;;;;;;;;;;3.40;69.40;;;;;;4932857;29;19914;-86
2021/04/16 04:27:27;;;;;;;;;;;3.50;69.70;;;;;;4940000;28;19948;-87
2021/04/16 04:29:53;;;;;;;;;;;3.50;69.90;;;;;;4932981;29;19953;-85
2021/04/16 04:32:18;;;;;;;;;;;3.60;69.80;;;;;;4939018;29;19906;-90
2021/04/16 04:34:44;;;;;;;;;;;3.60;70.00;;;;;;4944024;29;20360;-91
2021/04/16 04:37:10;;;;;;;;;;;3.60;69.90;;;;;;4950675;28;19911;-90
2021/04/16 04:39:37;;;;;;;;;;;3.70;70.00;;;;;;4945735;29;20375;-90
2021/04/16 04:42:04;;;;;;;;;;;3.70;69.90;;;;;;4938049;29;19911;-90
2021/04/16 04:44:30;;;;;;;;;;;3.70;69.80;;;;;;4954570;28;20045;-90
2021/04/16 04:46:55;;;;;;;;;;;3.70;69.80;;;;;;4955768;29;19973;-90
2021/04/16 04:49:21;;;;;;;;;;;3.80;70.00;;;;;;4948113;29;19915;-90
2021/04/16 04:51:47;;;;;;;;;;;3.80;70.20;;;;;;4945272;29;19921;-91
2021/04/16 04:54:12;;;;;;;;;;;3.80;70.30;;;;;;4949083;29;19985;-91
2021/04/16 04:56:40;;;;;;;;;;;3.80;70.30;;;;;;4950891;28;20001;-91
2021/04/16 04:59:05;;;;;;;;;;;3.80;70.50;;;;;;4941049;29;19910;-92
2021/04/16 05:01:31;;;;;;;;;;;3.80;70.60;;;;;;4944530;28;19913;-89
2021/04/16 05:03:56;;;;;;;;;;;3.80;70.50;;;;;;4946857;28;19962;-88
2021/04/16 05:06:22;;;;;;;;;;;3.80;70.50;;;;;;4934261;29;20362;-88
2021/04/16 05:08:47;;;;;;;;;;;3.80;70.50;;;;;;4936847;29;19914;-88
2021/04/16 05:11:13;;;;;;;;;;;3.90;70.60;;;;;;4925595;29;19953;-89
2021/04/16 05:13:39;;;;;;;;;;;3.90;70.50;;;;;;4923628;29;20277;-87
2021/04/16 05:16:04;;;;;;;;;;;3.90;70.40;;;;;;4922313;29;19938;-88
2021/04/16 05:18:30;;;;;;;;;;;4.00;70.50;;;;;;4927437;29;20061;-88
2021/04/16 05:20:55;;;;;;;;;;;4.00;70.20;;;;;;4940256;28;19907;-88
2021/04/16 05:23:21;;;;;;;;;;;4.00;70.30;;;;;;4936753;29;19938;-87
2021/04/16 05:25:46;;;;;;;;;;;4.00;70.20;;;;;;4930800;28;20045;-90
2021/04/16 05:28:12;;;;;;;;;;;4.10;70.10;;;;;;4943552;29;19995;-88
2021/04/16 05:30:37;;;;;;;;;;;4.30;70.30;;;;;;4931344;29;19942;-87
2021/04/16 05:33:04;;;;;;;;;;;5.30;69.60;;;;;;4919937;29;19998;-87
2021/04/16 05:35:29;;;;;;;;;;;6.30;67.30;;;;;;4939356;29;20340;-89
2021/04/16 05:37:58;;;;;;;;;;;7.30;64.80;;;;;;4934439;29;19918;-88
2021/04/16 05:40:26;;;;;;;;;;;8.20;62.40;;;;;;4934629;29;19915;-88
2021/04/16 05:42:52;;;;;;;;;;;8.90;60.30;;;;;;4923563;29;19915;-88
2021/04/16 05:45:17;;;;;;;;;;;9.50;58.80;;;;;;4933248;29;19914;-90
2021/04/16 05:47:43;;;;;;;;;;;10.10;57.60;;;;;;4938789;29;20009;-90
2021/04/16 05:50:09;;;;;;;;;;;10.00;57.00;;;;;;4942119;29;19918;-88
2021/04/16 05:52:34;;;;;;;;;;;10.10;56.90;;;;;;4945251;28;20010;-90
2021/04/16 05:55:00;;;;;;;;;;;10.20;56.40;;;;;;4943257;29;19942;-89
2021/04/16 05:57:25;;;;;;;;;;;10.20;56.20;;;;;;4955120;28;19910;-89
2021/04/16 05:59:51;;;;;;;;;;;10.20;56.10;;;;;;4945499;28;19914;-90
2021/04/16 06:02:27;;;;;;;;;;;10.70;55.50;;;;;;4945929;29;20326;-91
2021/04/16 06:04:53;;;;;;;;;;;11.50;54.20;;;;;;4934337;29;20372;-88
2021/04/16 06:07:20;;;;;;;;;;;12.10;52.80;;;;;;4934341;28;19942;-90
2021/04/16 06:09:45;;;;;;;;;;;12.70;51.60;;;;;;4932698;29;20582;-88
2021/04/16 06:12:11;;;;;;;;;;;13.30;50.30;;;;;;4935425;28;19922;-88
2021/04/16 06:14:37;;;;;;;;;;;12.90;49.80;;;;;;4933921;29;19918;-86
2021/04/16 06:17:03;;;;;;;;;;;11.80;51.10;;;;;;4937295;29;19963;-86
2021/04/16 06:19:28;;;;;;;;;;;10.70;52.80;;;;;;4935546;29;19993;-86
2021/04/16 06:21:53;;;;;;;;;;;9.90;54.60;;;;;;4945480;29;20284;-86
2021/04/16 06:24:19;;;;;;;;;;;9.10;56.10;;;;;;4945526;28;20065;-86
2021/04/16 06:26:44;;;;;;;;;;;8.60;57.70;;;;;;4939968;28;19921;-87
2021/04/16 06:29:10;;;;;;;;;;;8.30;58.50;;;;;;4939188;29;19914;-87
2021/04/16 06:31:35;;;;;;;;;;;8.00;59.40;;;;;;4936937;29;19914;-84
2021/04/16 06:34:01;;;;;;;;;;;7.60;60.10;;;;;;4940604;29;19953;-86
2021/04/16 06:36:26;;;;;;;;;;;7.30;60.80;;;;;;4937765;29;19914;-86
2021/04/16 06:38:52;;;;;;;;;;;7.10;61.50;;;;;;4931552;29;19958;-93
2021/04/16 06:41:27;;;;;;;;;;;6.80;62.00;;;;;;4948193;28;19911;-93
2021/04/16 06:44:19;;;;;;;;;;;6.70;62.70;;;;;;4948367;29;19919;-95
2021/04/16 06:46:46;;;;;;;;;;;6.50;63.30;;;;;;4939705;29;19938;-94
2021/04/16 06:49:17;;;;;;;;;;;6.40;63.80;;;;;;4945291;29;20009;-93
2021/04/16 06:51:59;;;;;;;;;;;6.30;64.10;;;;;;4941084;29;19917;-93
2021/04/16 06:54:27;;;;;;;;;;;6.30;64.30;;;;;;4939037;29;20005;-92
2021/04/16 06:56:53;;;;;;;;;;;6.20;65.30;;;;;;4939306;29;19997;-93
2021/04/16 06:59:29;;;;;;;;;;;6.60;65.10;;;;;;4949713;28;20009;-93
2021/04/16 07:01:57;;;;;;;;;;;8.80;62.30;;;;;;4951133;28;20283;-92
2021/04/16 07:04:41;;;;;;;;;;;11.00;57.20;;;;;;4936227;29;20369;-91
2021/04/16 07:07:25;;;;;;;;;;;12.70;53.30;;;;;;4947315;29;19917;-91
2021/04/16 07:10:19;;;;;;;;;;;14.00;50.30;;;;;;4954556;28;20044;-96
2021/04/16 07:12:45;;;;;;;;;;;15.00;47.90;;;;;;4952650;29;19944;-92
2021/04/16 07:15:17;;;;;;;;;;;15.90;46.30;;;;;;4942538;29;20365;-94
2021/04/16 07:18:03;;;;;;;;;;;16.30;45.10;;;;;;4951203;29;19910;-96
2021/04/16 07:20:34;;;;;;;;;;;16.70;44.10;;;;;;5235113;23;20986;-96
2021/04/16 07:23:01;;;;;;;;;;;17.00;43.40;;;;;;4954334;28;19985;-90
2021/04/16 07:25:29;;;;;;;;;;;17.40;42.50;;;;;;4949766;28;19926;-90
2021/04/16 07:27:56;;;;;;;;;;;17.90;42.00;;;;;;4954503;28;19916;-91
2021/04/16 07:30:26;;;;;;;;;;;18.40;40.90;;;;;;4953203;28;20187;-91
2021/04/16 07:32:52;;;;;;;;;;;18.50;40.00;;;;;;4957905;28;19918;-90
2021/04/16 07:35:26;;;;;;;;;;;18.80;39.80;;;;;;4950445;28;20095;-95
2021/04/16 07:38:04;;;;;;;;;;;19.20;39.50;;;;;;4952928;28;19914;-91
2021/04/16 07:40:35;;;;;;;;;;;19.50;38.70;;;;;;4955153;28;19917;-93
2021/04/16 07:43:01;;;;;;;;;;;19.20;37.50;;;;;;4950182;28;19919;-92
2021/04/16 07:45:33;;;;;;;;;;;19.40;37.80;;;;;;4951059;28;21100;-90
2021/04/16 07:48:17;;;;;;;;;;;19.50;37.30;;;;;;4951928;28;19914;-88
2021/04/16 07:50:44;;;;;;;;;;;20.10;37.30;;;;;;4951689;28;19910;-88
2021/04/16 07:53:49;;;;;;;;;;;20.60;37.00;;;;;;4953942;28;20335;-94
2021/04/16 07:56:15;;;;;;;;;;;20.90;36.70;;;;;;4912233;29;20345;-91
2021/04/16 07:58:41;;;;;;;;;;;20.90;35.00;;;;;;4913343;29;20889;-93
2021/04/16 08:01:29;;;;;;;;;;;20.60;34.60;;;;;;4932053;28;20424;-89
2021/04/16 08:04:14;;;;;;;;;;;20.40;33.00;;;;;;4947230;28;19953;-92
2021/04/16 08:06:42;;;;;;;;;;;20.20;33.50;;;;;;4933119;28;19919;-91
2021/04/16 08:09:13;;;;;;;;;;;20.30;32.00;;;;;;4960038;28;20081;-93
2021/04/16 08:11:38;;;;;;;;;;;19.80;32.00;;;;;;4966472;28;20432;-92
2021/04/16 08:14:25;;;;;;;;;;;19.50;30.80;;;;;;4959382;28;19898;-96
2021/04/16 08:16:55;;;;;;;;;;;18.60;31.10;;;;;;4954313;28;19918;-96
2021/04/16 08:19:23;;;;;;;;;;;19.00;32.60;;;;;;4954653;28;19956;-93
2021/04/16 08:21:51;;;;;;;;;;;19.20;32.10;;;;;;5001231;23;19930;-90
2021/04/16 08:24:28;;;;;;;;;;;19.20;31.50;;;;;;4942337;29;19930;-96
2021/04/16 08:27:06;;;;;;;;;;;19.60;31.50;;;;;;4932638;28;20325;-89
2021/04/16 08:29:37;;;;;;;;;;;19.90;31.20;;;;;;4927283;29;19914;-88
2021/04/16 08:32:06;;;;;;;;;;;19.50;29.60;;;;;;4945089;28;19915;-87
2021/04/16 08:34:35;;;;;;;;;;;19.20;30.50;;;;;;4926101;29;19911;-86
2021/04/16 08:37:02;;;;;;;;;;;19.00;30.50;;;;;;4927159;29;19914;-88
2021/04/16 08:39:31;;;;;;;;;;;18.60;31.10;;;;;;4932051;29;20404;-88
2021/04/16 08:42:01;;;;;;;;;;;18.40;32.00;;;;;;4933252;29;19922;-86
2021/04/16 08:44:28;;;;;;;;;;;18.00;32.40;;;;;;4929046;29;19927;-89
2021/04/16 08:46:54;;;;;;;;;;;17.50;32.80;;;;;;4931470;29;19917;-88
2021/04/16 08:49:27;;;;;;;;;;;16.90;31.30;;;;;;4925022;29;19940;-87
2021/04/16 08:51:58;;;;;;;;;;;15.90;33.00;;;;;;4933178;28;19919;-86
2021/04/16 08:54:24;;;;;;;;;;;15.20;34.20;;;;;;4938137;28;19952;-89
2021/04/16 08:57:01;;;;;;;;;;;14.90;36.00;;;;;;4951620;28;19918;-90
2021/04/16 08:59:30;;;;;;;;;;;14.60;36.60;;;;;;4933121;29;20001;-91
2021/04/16 09:02:07;;;;;;;;;;;13.70;33.60;;;;;;4929401;29;19956;-90
2021/04/16 09:04:33;;;;;;;;;;;13.20;36.00;;;;;;4932376;29;19958;-88
2021/04/16 09:06:59;;;;;;;;;;;13.00;37.20;;;;;;4926625;29;20199;-88
2021/04/16 09:09:42;;;;;;;;;;;12.80;37.50;;;;;;4932316;29;20044;-86
2021/04/16 09:12:08;;;;;;;;;;;12.60;38.30;;;;;;4927269;29;20239;-88
2021/04/16 09:14:33;;;;;;;;;;;12.40;38.60;;;;;;4931998;29;19911;-90
2021/04/16 09:17:05;;;;;;;;;;;12.40;39.10;;;;;;4946081;28;19935;-87
2021/04/16 09:19:31;;;;;;;;;;;12.30;38.50;;;;;;4922351;29;19910;-87
2021/04/16 09:22:05;;;;;;;;;;;12.20;37.70;;;;;;4930438;29;19942;-88
2021/04/16 09:24:46;;;;;;;;;;;12.20;38.80;;;;;;4925858;29;19922;-87
2021/04/16 09:27:30;;;;;;;;;;;12.30;39.20;;;;;;4930673;29;20099;-91
2021/04/16 09:29:59;;;;;;;;;;;12.30;38.20;;;;;;4927600;29;19919;-91
2021/04/16 09:32:29;;;;;;;;;;;12.20;38.30;;;;;;4926312;29;19997;-91
2021/04/16 09:34:55;;;;;;;;;;;12.20;38.20;;;;;;4934086;28;19911;-91
2021/04/16 09:37:23;;;;;;;;;;;12.20;37.60;;;;;;4930563;29;19911;-90
2021/04/16 09:40:00;;;;;;;;;;;12.20;38.10;;;;;;4951886;28;19962;-91
2021/04/16 09:42:34;;;;;;;;;;;12.20;38.40;;;;;;4950649;28;20227;-90
2021/04/16 09:45:02;;;;;;;;;;;12.10;36.90;;;;;;4928464;29;20286;-92
2021/04/16 09:47:41;;;;;;;;;;;12.00;37.80;;;;;;4936048;29;19919;-90
2021/04/16 09:50:19;;;;;;;;;;;12.00;38.20;;;;;;4931756;29;20183;-90
2021/04/16 09:52:46;;;;;;;;;;;12.10;38.30;;;;;;4930444;29;20005;-91
2021/04/16 09:55:30;;;;;;;;;;;12.20;38.60;;;;;;4932176;29;19946;-91
2021/04/16 09:57:55;;;;;;;;;;;12.20;38.80;;;;;;4922288;29;20504;-90
2021/04/16 10:00:53;;;;;;;;;;;12.20;39.00;;;;;;4936301;29;20001;-89
2021/04/16 10:03:20;;;;;;;;;;;12.30;38.80;;;;;;4929310;29;19918;-91
2021/04/16 10:05:46;;;;;;;;;;;12.30;38.40;;;;;;4933531;29;19942;-91
2021/04/16 10:08:18;;;;;;;;;;;12.30;38.00;;;;;;4931971;29;19911;-90
2021/04/16 10:10:44;;;;;;;;;;;12.30;37.90;;;;;;4928490;29;19911;-91
2021/04/16 10:13:14;;;;;;;;;;;12.30;36.80;;;;;;4930269;29;19966;-90
2021/04/16 10:15:42;;;;;;;;;;;12.30;37.50;;;;;;4928246;29;20281;-91
2021/04/16 10:18:27;;;;;;;;;;;12.30;37.40;;;;;;4928965;29;19970;-93
2021/04/16 10:20:59;;;;;;;;;;;12.30;37.90;;;;;;4945276;28;19915;-93
2021/04/16 10:23:31;;;;;;;;;;;12.30;36.30;;;;;;4948699;28;19996;-93
2021/04/16 11:06:54;;;;;;;;;;;13.00;38.30;;;;;;4934671;29;20151;-89
2021/04/16 12:38:41;;;;;;;;;;;14.90;31.00;;;;;;4931898;29;19992;-90
2021/04/16 12:41:08;;;;;;;;;;;15.10;30.80;;;;;;4924762;29;19911;-88
2021/04/16 12:43:35;;;;;;;;;;;15.30;30.10;;;;;;4932415;28;19923;-90
2021/04/16 12:46:01;;;;;;;;;;;15.30;30.00;;;;;;4929885;29;20358;-90
2021/04/16 12:48:26;;;;;;;;;;;15.30;29.10;;;;;;4932697;28;19911;-91
2021/04/16 12:50:52;;;;;;;;;;;15.20;29.90;;;;;;4932632;29;20350;-90
2021/04/16 12:53:17;;;;;;;;;;;15.00;29.50;;;;;;4931994;29;19929;-89
2021/04/16 12:55:43;;;;;;;;;;;15.00;30.30;;;;;;4930994;29;20032;-90
2021/04/16 12:58:09;;;;;;;;;;;15.10;30.40;;;;;;4928296;29;19911;-91
2021/04/16 13:00:37;;;;;;;;;;;15.30;30.10;;;;;;4941570;29;20452;-93
2021/04/16 13:03:13;;;;;;;;;;;15.30;28.90;;;;;;4933741;29;20096;-91
2021/04/16 13:05:38;;;;;;;;;;;15.10;27.70;;;;;;4929986;29;19990;-91
2021/04/16 13:08:05;;;;;;;;;;;14.70;28.30;;;;;;4932640;29;20056;-91
2021/04/16 13:10:31;;;;;;;;;;;14.70;29.50;;;;;;4935118;29;19918;-92
2021/04/16 13:12:56;;;;;;;;;;;15.00;29.70;;;;;;4925587;29;20014;-92
2021/04/16 13:15:22;;;;;;;;;;;15.40;30.00;;;;;;4932360;29;19911;-91
2021/04/16 13:17:49;;;;;;;;;;;15.80;30.00;;;;;;4932992;29;19936;-90
2021/04/16 13:20:15;;;;;;;;;;;16.00;30.00;;;;;;4935832;29;19962;-88
2021/04/16 13:22:42;;;;;;;;;;;16.00;28.70;;;;;;4940406;29;19919;-90
2021/04/16 13:25:08;;;;;;;;;;;15.80;29.10;;;;;;4937594;29;19926;-91
2021/04/16 13:27:33;;;;;;;;;;;15.50;29.00;;;;;;4938575;29;19934;-89
2021/04/16 13:29:59;;;;;;;;;;;15.10;29.10;;;;;;4942990;29;19945;-92
2021/04/16 13:32:28;;;;;;;;;;;15.10;29.90;;;;;;4940047;29;20018;-91
2021/04/16 13:34:55;;;;;;;;;;;15.30;30.60;;;;;;4935990;29;19934;-95
2021/04/16 13:37:21;;;;;;;;;;;15.40;30.30;;;;;;4943554;29;19974;-96
2021/04/16 13:39:47;;;;;;;;;;;15.30;30.70;;;;;;4932161;29;19992;-94
2021/04/16 13:42:13;;;;;;;;;;;15.30;30.30;;;;;;4931912;29;19910;-92
2021/04/16 13:44:39;;;;;;;;;;;15.20;31.00;;;;;;4947738;28;20891;-91
2021/04/16 13:47:05;;;;;;;;;;;15.20;31.50;;;;;;4934954;29;19945;-91
2021/04/16 13:49:35;;;;;;;;;;;15.40;31.70;;;;;;4956029;28;19910;-92
2021/04/16 13:52:01;;;;;;;;;;;15.60;31.60;;;;;;4935078;29;19940;-94
2021/04/16 13:54:27;;;;;;;;;;;15.60;31.30;;;;;;4939073;29;20373;-92
2021/04/16 13:56:52;;;;;;;;;;;15.70;31.80;;;;;;4936861;29;19915;-95
2021/04/16 13:59:18;;;;;;;;;;;15.70;31.50;;;;;;4943134;28;19925;-94
2021/04/16 14:01:44;;;;;;;;;;;15.80;31.40;;;;;;4937151;29;19914;-92
2021/04/16 14:04:15;;;;;;;;;;;15.70;31.40;;;;;;4934602;28;19934;-92
2021/04/16 14:06:40;;;;;;;;;;;15.80;31.50;;;;;;4937072;29;20281;-91
2021/04/16 14:09:10;;;;;;;;;;;16.00;31.60;;;;;;4959034;28;19910;-90
2021/04/16 14:11:36;;;;;;;;;;;16.00;31.10;;;;;;4940593;29;19910;-94
2021/04/16 14:14:03;;;;;;;;;;;16.20;31.00;;;;;;4936790;29;19933;-92
2021/04/16 14:16:32;;;;;;;;;;;16.30;31.10;;;;;;4938747;29;20384;-91
2021/04/16 14:18:59;;;;;;;;;;;16.30;30.80;;;;;;4936706;29;19915;-91
2021/04/16 14:21:26;;;;;;;;;;;16.20;30.60;;;;;;4939047;29;19926;-90
2021/04/16 14:23:53;;;;;;;;;;;16.20;30.90;;;;;;4935147;29;19925;-94
2021/04/16 14:26:19;;;;;;;;;;;16.20;31.20;;;;;;4946219;28;19931;-93
2021/04/16 14:28:45;;;;;;;;;;;16.20;30.70;;;;;;4944679;29;19922;-94
2021/04/16 14:31:11;;;;;;;;;;;16.00;30.00;;;;;;4940128;29;19910;-93
2021/04/16 14:33:39;;;;;;;;;;;16.10;30.60;;;;;;4943537;29;20336;-94
2021/04/16 14:36:05;;;;;;;;;;;16.20;30.80;;;;;;4945248;29;20010;-90
2021/04/16 14:38:31;;;;;;;;;;;16.20;30.40;;;;;;4941672;29;19917;-92
2021/04/16 14:40:56;;;;;;;;;;;16.30;30.70;;;;;;4944673;29;20368;-90
2021/04/16 14:43:23;;;;;;;;;;;16.30;30.60;;;;;;4939750;29;20330;-91
2021/04/16 14:45:56;;;;;;;;;;;16.40;30.80;;;;;;4935807;29;19929;-93
2021/04/16 14:48:29;;;;;;;;;;;16.30;30.00;;;;;;4953037;28;19911;-91
2021/04/16 14:50:56;;;;;;;;;;;16.20;30.40;;;;;;4937913;29;19918;-90
2021/04/16 14:53:31;;;;;;;;;;;16.10;30.70;;;;;;4949276;29;20270;-91
2021/04/16 14:56:04;;;;;;;;;;;16.20;31.10;;;;;;4958501;29;19914;-92
2021/04/16 14:58:51;;;;;;;;;;;16.30;31.30;;;;;;4945993;29;20093;-91
2021/04/16 15:01:17;;;;;;;;;;;16.50;31.40;;;;;;4945359;29;19910;-92
2021/04/16 15:03:43;;;;;;;;;;;16.60;31.20;;;;;;4936012;28;19969;-91
2021/04/16 15:06:14;;;;;;;;;;;16.60;31.10;;;;;;4955687;29;19911;-92
2021/04/16 15:08:44;;;;;;;;;;;16.40;30.10;;;;;;4944826;29;19919;-91
2021/04/16 15:11:13;;;;;;;;;;;16.00;30.90;;;;;;4945147;29;19924;-90
2021/04/16 15:13:39;;;;;;;;;;;15.80;31.40;;;;;;4946201;28;19961;-95
2021/04/16 15:16:17;;;;;;;;;;;15.70;31.90;;;;;;4977741;29;19937;-96
2021/04/16 15:18:52;;;;;;;;;;;15.40;32.00;;;;;;4957511;29;20338;-95
2021/04/16 15:21:19;;;;;;;;;;;15.20;32.20;;;;;;4950088;29;19965;-93
2021/04/16 15:23:48;;;;;;;;;;;15.30;32.60;;;;;;4946527;29;20045;-94
2021/04/16 15:26:14;;;;;;;;;;;15.20;33.10;;;;;;4934488;29;19918;-93
2021/04/16 15:28:44;;;;;;;;;;;15.30;32.80;;;;;;4937731;29;19931;-92
2021/04/16 15:31:12;;;;;;;;;;;15.30;33.10;;;;;;4942253;29;19921;-92
2021/04/16 15:47:18;;;;;;;;;;;15.10;33.90;;;;;;4938478;28;19950;-94
2021/04/16 15:49:43;;;;;;;;;;;15.10;33.90;;;;;;4939537;29;20017;-93
2021/04/16 15:52:09;;;;;;;;;;;15.10;34.00;;;;;;4942994;29;19910;-94
2021/04/16 15:54:34;;;;;;;;;;;15.10;34.00;;;;;;4943596;29;20369;-94
2021/04/16 15:57:00;;;;;;;;;;;15.10;34.00;;;;;;4944511;29;19921;-93
2021/04/16 15:59:26;;;;;;;;;;;15.10;34.10;;;;;;4946045;29;19990;-94
2021/04/16 16:01:52;;;;;;;;;;;15.10;34.10;;;;;;4944154;29;19948;-94
2021/04/16 16:04:18;;;;;;;;;;;15.10;34.30;;;;;;4944697;28;19969;-94
2021/04/16 16:06:45;;;;;;;;;;;15.10;34.40;;;;;;4941944;29;19990;-94
2021/04/16 16:09:21;;;;;;;;;;;15.20;34.50;;;;;;4940630;28;19993;-96
2021/04/16 16:11:53;;;;;;;;;;;15.10;34.40;;;;;;4936298;29;19917;-95
2021/04/16 16:14:22;;;;;;;;;;;15.00;34.20;;;;;;4940045;28;19919;-93
2021/04/16 16:17:01;;;;;;;;;;;15.00;34.40;;;;;;4941964;29;20038;-95
2021/04/16 16:19:29;;;;;;;;;;;15.00;34.50;;;;;;4948747;29;19966;-93
2021/04/16 16:21:55;;;;;;;;;;;15.00;34.60;;;;;;4936542;29;19975;-94
2021/04/16 16:24:24;;;;;;;;;;;15.00;34.80;;;;;;4942097;29;19919;-93
2021/04/16 16:26:57;;;;;;;;;;;15.00;34.90;;;;;;4936857;29;19962;-92
2021/04/16 16:29:23;;;;;;;;;;;14.90;34.90;;;;;;4936884;28;19915;-93
2021/04/16 16:31:50;;;;;;;;;;;14.90;35.20;;;;;;4943371;29;20329;-93
2021/04/16 16:34:18;;;;;;;;;;;15.00;35.30;;;;;;4935185;29;19942;-93
2021/04/16 16:36:44;;;;;;;;;;;14.80;35.30;;;;;;4936879;29;19910;-94
2021/04/16 16:39:10;;;;;;;;;;;14.70;35.50;;;;;;4933805;29;19906;-93
2021/04/16 16:41:36;;;;;;;;;;;14.60;35.90;;;;;;4941664;29;19913;-93
2021/04/16 16:44:09;;;;;;;;;;;14.50;36.20;;;;;;4931783;29;19926;-92
2021/04/16 16:46:37;;;;;;;;;;;14.40;36.40;;;;;;4940630;29;19910;-91
2021/04/16 16:49:04;;;;;;;;;;;14.20;36.70;;;;;;4939001;29;19910;-94
2021/04/16 16:51:30;;;;;;;;;;;14.10;36.80;;;;;;4939105;29;19917;-93
2021/04/16 16:53:56;;;;;;;;;;;14.20;37.00;;;;;;4933566;29;19914;-94